createdAt,value
2023-01-26T00:01:29.571Z,11.45
2023-01-26T00:03:58.779Z,12.05
2023-01-26T00:06:27.246Z,11.43
2023-01-26T00:08:57.613Z,11.90
2023-01-26T00:11:27.944Z,10.82
2023-01-26T00:13:56.521Z,11.68
2023-01-26T00:16:24.874Z,10.75
2023-01-26T00:18:54.294Z,10.10
2023-01-26T00:21:24.298Z,10.05
2023-01-26T00:23:53.447Z,11.38
2023-01-26T00:26:25.490Z,11.50
2023-01-26T00:28:54.268Z,9.55
2023-01-26T00:31:24.332Z,11.85
2023-01-26T00:33:53.042Z,11.00
2023-01-26T00:36:21.223Z,10.75
2023-01-26T00:38:49.507Z,9.32
2023-01-26T00:41:31.692Z,10.32
2023-01-26T00:44:01.679Z,10.07
2023-01-26T00:46:29.785Z,12.18
2023-01-26T00:48:57.929Z,11.30
2023-01-26T00:51:26.141Z,12.13
2023-01-26T00:53:54.180Z,11.05
2023-01-26T00:56:22.232Z,12.35
2023-01-26T00:58:50.165Z,11.75
2023-01-26T01:01:19.579Z,10.40
2023-01-26T01:03:47.584Z,12.18
2023-01-26T01:06:15.982Z,12.60
2023-01-26T01:08:44.167Z,13.77
2023-01-26T01:11:13.147Z,13.52
2023-01-26T01:13:41.658Z,12.32
2023-01-26T01:16:11.404Z,11.43
2023-01-26T01:18:40.991Z,12.98
2023-01-26T01:21:09.753Z,12.85
2023-01-26T01:23:37.836Z,11.95
2023-01-26T01:26:07.160Z,13.45
2023-01-26T01:28:37.073Z,12.88
2023-01-26T01:31:06.084Z,11.45
2023-01-26T01:33:34.247Z,13.43
2023-01-26T01:36:05.491Z,12.88
2023-01-26T01:38:33.716Z,11.73
2023-01-26T01:41:01.760Z,12.80
2023-01-26T01:43:30.348Z,12.13
2023-01-26T01:46:01.452Z,11.88
2023-01-26T01:48:33.618Z,12.63
2023-01-26T01:51:08.217Z,13.82
2023-01-26T01:53:40.411Z,14.75
2023-01-26T01:56:19.164Z,15.70
2023-01-26T01:58:47.688Z,13.27
2023-01-26T02:01:16.060Z,12.75
2023-01-26T02:03:46.834Z,12.80
2023-01-26T02:06:19.231Z,12.43
2023-01-26T02:08:50.109Z,11.65
2023-01-26T02:11:21.414Z,11.82
2023-01-26T02:13:50.686Z,14.43
2023-01-26T02:16:19.189Z,13.50
2023-01-26T02:18:48.009Z,12.35
2023-01-26T02:21:20.211Z,12.10
2023-01-26T02:24:06.209Z,11.38
2023-01-26T02:26:36.936Z,13.30
2023-01-26T02:29:08.566Z,12.30
2023-01-26T02:31:37.918Z,12.60
2023-01-26T02:34:06.396Z,12.40
2023-01-26T02:36:35.243Z,12.50
2023-01-26T02:39:23.377Z,13.73
2023-01-26T02:42:11.341Z,12.35
2023-01-26T02:44:42.430Z,11.95
2023-01-26T02:47:13.961Z,12.93
2023-01-26T02:49:47.124Z,12.93
2023-01-26T02:52:15.589Z,12.45
2023-01-26T02:55:00.928Z,12.52
2023-01-26T02:57:30.584Z,12.35
2023-01-26T02:59:58.774Z,13.55
2023-01-26T03:02:26.833Z,12.85
2023-01-26T03:04:55.010Z,13.27
2023-01-26T03:07:23.393Z,11.93
2023-01-26T03:09:51.715Z,12.27
2023-01-26T03:12:19.909Z,13.23
2023-01-26T03:15:09.300Z,12.65
2023-01-26T03:17:37.458Z,12.45
2023-01-26T03:20:24.868Z,13.25
2023-01-26T03:23:09.306Z,12.35
2023-01-26T03:25:55.512Z,13.00
2023-01-26T03:28:23.948Z,12.63
2023-01-26T03:30:55.565Z,13.52
2023-01-26T03:33:23.586Z,13.35
2023-01-26T03:35:54.807Z,13.18
2023-01-26T03:38:23.033Z,13.75
2023-01-26T03:41:08.291Z,13.07
2023-01-26T03:43:55.555Z,14.15
2023-01-26T03:46:42.161Z,11.85
2023-01-26T03:49:27.480Z,12.18
2023-01-26T03:52:12.835Z,12.45
2023-01-26T03:54:58.144Z,13.02
2023-01-26T03:57:26.335Z,13.57
2023-01-26T03:59:54.393Z,14.07
2023-01-26T04:02:41.330Z,11.75
2023-01-26T04:05:27.735Z,11.80
2023-01-26T04:08:13.089Z,12.60
2023-01-26T04:10:40.987Z,12.77
2023-01-26T04:13:26.233Z,10.10
2023-01-26T04:16:12.018Z,12.15
2023-01-26T04:18:58.785Z,11.20
2023-01-26T04:21:30.237Z,11.68
2023-01-26T04:23:59.205Z,12.60
2023-01-26T04:26:34.651Z,8.93
2023-01-26T04:29:03.612Z,11.48
2023-01-26T04:31:31.932Z,10.77
2023-01-26T04:34:02.559Z,11.40
2023-01-26T04:36:30.936Z,12.13
2023-01-26T04:38:59.431Z,10.75
2023-01-26T04:41:27.644Z,11.00
2023-01-26T04:43:55.870Z,9.93
2023-01-26T04:46:24.024Z,9.38
2023-01-26T04:48:52.988Z,10.57
2023-01-26T04:51:23.252Z,8.80
2023-01-26T04:53:52.260Z,9.73
2023-01-26T04:56:25.353Z,9.25
2023-01-26T04:58:54.703Z,9.38
2023-01-26T05:01:23.420Z,10.77
2023-01-26T05:03:51.578Z,9.43
2023-01-26T05:06:19.779Z,11.23
2023-01-26T05:08:49.337Z,10.40
2023-01-26T05:11:17.713Z,10.00
2023-01-26T05:13:47.285Z,8.27
2023-01-26T05:16:15.879Z,11.48
2023-01-26T05:18:44.413Z,8.25
2023-01-26T05:21:12.648Z,26.40
2023-01-26T05:23:41.319Z,16.95
2023-01-26T05:26:11.027Z,11.93
2023-01-26T05:28:39.614Z,10.80
2023-01-26T05:31:07.884Z,8.48
2023-01-26T05:33:36.485Z,8.55
2023-01-26T05:36:06.711Z,8.60
2023-01-26T05:38:35.889Z,11.52
2023-01-26T05:41:04.114Z,16.77
2023-01-26T05:43:33.630Z,18.77
2023-01-26T05:46:01.910Z,9.55
2023-01-26T05:48:30.038Z,9.98
2023-01-26T05:50:58.717Z,7.85
2023-01-26T05:53:26.806Z,11.48
2023-01-26T05:55:54.875Z,16.40
2023-01-26T05:58:23.055Z,9.23
2023-01-26T06:00:52.493Z,8.25
2023-01-26T06:03:20.538Z,8.32
2023-01-26T06:05:54.981Z,8.05
2023-01-26T06:08:23.087Z,8.25
2023-01-26T06:10:51.180Z,9.00
2023-01-26T06:13:19.124Z,8.20
2023-01-26T06:15:47.181Z,8.82
2023-01-26T06:18:16.578Z,10.50
2023-01-26T06:20:44.857Z,9.10
2023-01-26T06:23:13.004Z,8.77
2023-01-26T06:25:41.267Z,9.32
2023-01-26T06:28:09.466Z,9.77
2023-01-26T06:30:38.059Z,10.45
2023-01-26T06:33:06.905Z,10.35
2023-01-26T06:35:37.152Z,9.50
2023-01-26T06:38:05.515Z,9.13
2023-01-26T06:40:33.602Z,9.85
2023-01-26T06:43:01.597Z,10.60
2023-01-26T06:45:29.612Z,10.93
2023-01-26T06:47:58.027Z,11.15
2023-01-26T06:50:32.127Z,10.88
2023-01-26T06:53:05.091Z,10.02
2023-01-26T06:55:37.275Z,9.93
2023-01-26T06:58:05.325Z,10.55
2023-01-26T07:00:33.480Z,11.18
2023-01-26T07:03:01.650Z,10.70
2023-01-26T07:05:29.611Z,10.75
2023-01-26T07:08:00.227Z,12.75
2023-01-26T07:10:29.838Z,13.23
2023-01-26T07:12:57.927Z,12.60
2023-01-26T07:15:26.053Z,10.77
2023-01-26T07:17:54.632Z,10.40
2023-01-26T07:20:22.657Z,11.45
2023-01-26T07:22:51.007Z,11.10
2023-01-26T07:25:18.978Z,11.32
2023-01-26T07:27:48.434Z,12.88
2023-01-26T07:30:17.118Z,10.98
2023-01-26T07:32:45.118Z,9.05
2023-01-26T07:35:13.119Z,9.98
2023-01-26T07:37:41.144Z,11.15
2023-01-26T07:40:10.617Z,12.00
2023-01-26T07:42:38.919Z,11.57
2023-01-26T07:45:09.568Z,11.02
2023-01-26T07:47:43.939Z,12.20
2023-01-26T07:50:14.112Z,11.82
2023-01-26T07:52:43.650Z,11.27
2023-01-26T07:55:12.234Z,11.30
2023-01-26T07:57:40.392Z,10.55
2023-01-26T08:00:12.171Z,11.52
2023-01-26T08:02:40.395Z,11.82
2023-01-26T08:05:09.281Z,11.55
2023-01-26T08:07:37.407Z,11.55
2023-01-26T08:10:06.096Z,11.95
2023-01-26T08:12:39.489Z,12.27
2023-01-26T08:15:11.665Z,12.18
2023-01-26T08:17:39.808Z,17.80
2023-01-26T08:20:09.130Z,11.48
2023-01-26T08:22:37.254Z,10.60
2023-01-26T08:25:06.053Z,15.18
2023-01-26T08:27:34.147Z,11.82
2023-01-26T08:30:02.329Z,11.73
2023-01-26T08:32:32.018Z,11.55
2023-01-26T08:35:00.112Z,11.38
2023-01-26T08:37:28.189Z,12.02
2023-01-26T08:39:56.360Z,10.85
2023-01-26T08:42:25.301Z,10.32
2023-01-26T08:44:53.468Z,11.07
2023-01-26T08:47:21.468Z,11.75
2023-01-26T08:49:51.003Z,10.90
2023-01-26T08:52:19.100Z,12.63
2023-01-26T08:54:47.271Z,10.70
2023-01-26T08:57:15.386Z,10.95
2023-01-26T08:59:43.539Z,9.70
2023-01-26T09:02:11.888Z,10.70
2023-01-26T09:04:41.880Z,10.32
2023-01-26T09:07:13.386Z,10.90
2023-01-26T09:09:41.700Z,10.68
2023-01-26T09:12:09.716Z,10.60
2023-01-26T09:14:37.811Z,10.20
2023-01-26T09:17:05.957Z,12.27
2023-01-26T09:19:34.441Z,12.77
2023-01-26T09:22:02.522Z,13.27
2023-01-26T09:24:31.972Z,14.20
2023-01-26T09:26:59.928Z,13.48
2023-01-26T09:29:28.144Z,13.45
2023-01-26T09:31:56.354Z,14.23
2023-01-26T09:34:25.366Z,13.95
2023-01-26T09:36:53.672Z,12.75
2023-01-26T09:39:21.854Z,12.77
2023-01-26T09:42:04.114Z,13.38
2023-01-26T09:44:39.052Z,13.38
2023-01-26T09:47:19.433Z,13.30
2023-01-26T09:49:50.710Z,13.18
2023-01-26T09:52:27.492Z,13.27
2023-01-26T09:54:59.390Z,14.10
2023-01-26T09:57:37.419Z,12.05
2023-01-26T10:00:11.304Z,12.88
2023-01-26T10:02:50.864Z,12.70
2023-01-26T10:05:26.405Z,13.30
2023-01-26T10:07:54.493Z,12.35
2023-01-26T10:10:32.083Z,11.95
2023-01-26T10:13:02.835Z,10.77
2023-01-26T10:15:33.110Z,11.15
2023-01-26T10:18:05.819Z,10.43
2023-01-26T10:20:37.233Z,12.48
2023-01-26T10:23:08.435Z,10.32
2023-01-26T10:25:38.208Z,11.20
2023-01-26T10:28:15.175Z,12.38
2023-01-26T10:33:59.019Z,11.52
2023-01-26T10:36:30.303Z,11.02
2023-01-26T10:39:05.475Z,12.52
2023-01-26T10:41:33.914Z,11.65
2023-01-26T10:44:05.718Z,12.68
2023-01-26T10:46:35.889Z,11.63
2023-01-26T10:49:17.746Z,10.15
2023-01-26T10:52:05.806Z,7.15
2023-01-26T10:54:35.391Z,12.38
2023-01-26T10:57:07.241Z,11.23
2023-01-26T10:59:40.494Z,11.48
2023-01-26T11:02:23.823Z,10.38
2023-01-26T11:05:21.309Z,10.75
2023-01-26T11:07:50.883Z,12.38
2023-01-26T11:10:25.400Z,10.27
2023-01-26T11:13:07.307Z,11.27
2023-01-26T11:15:40.261Z,10.10
2023-01-26T11:18:17.057Z,9.88
2023-01-26T11:20:51.298Z,9.27
2023-01-26T11:23:32.443Z,9.27
2023-01-26T11:26:30.687Z,10.15
2023-01-26T11:29:13.874Z,11.05
2023-01-26T11:31:55.304Z,10.23
2023-01-26T11:34:34.435Z,8.60
2023-01-26T11:37:23.309Z,8.98
2023-01-26T11:40:00.576Z,10.20
2023-01-26T11:42:36.475Z,9.82
2023-01-26T11:45:22.094Z,10.15
2023-01-26T11:48:06.381Z,9.80
2023-01-26T11:50:38.972Z,10.93
2023-01-26T11:53:24.008Z,12.57
2023-01-26T11:56:03.742Z,10.45
2023-01-26T11:58:35.150Z,9.77
2023-01-26T12:01:07.156Z,8.48
2023-01-26T12:03:42.778Z,7.53
2023-01-26T12:06:18.412Z,8.43
2023-01-26T12:08:52.478Z,8.63
2023-01-26T12:11:25.622Z,10.40
2023-01-26T12:14:06.515Z,9.02
2023-01-26T12:16:41.651Z,8.52
2023-01-26T12:19:33.171Z,8.85
2023-01-26T12:22:07.163Z,7.78
2023-01-26T12:27:36.087Z,8.02
2023-01-26T12:30:23.511Z,8.00
2023-01-26T12:32:52.136Z,7.75
2023-01-26T12:35:30.456Z,7.00
2023-01-26T12:38:17.251Z,7.80
2023-01-26T12:40:58.803Z,7.90
2023-01-26T12:43:40.876Z,5.85
2023-01-26T12:46:10.411Z,7.75
2023-01-26T12:48:44.338Z,8.05
2023-01-26T12:51:21.488Z,7.75
2023-01-26T12:53:55.933Z,7.85
2023-01-26T12:56:29.269Z,7.03
2023-01-26T12:58:59.464Z,7.25
2023-01-26T13:01:39.728Z,6.82
2023-01-26T13:04:11.131Z,6.85
2023-01-26T13:06:40.742Z,7.38
2023-01-26T13:09:22.011Z,7.20
2023-01-26T13:11:53.172Z,7.70
2023-01-26T13:14:39.639Z,6.97
2023-01-26T13:17:43.564Z,7.78
2023-01-26T13:20:50.054Z,7.68
2023-01-26T13:23:53.070Z,8.27
2023-01-26T13:26:46.006Z,8.40
2023-01-26T13:31:58.163Z,8.00
2023-01-26T13:34:30.274Z,7.68
2023-01-26T13:37:05.275Z,8.23
2023-01-26T13:39:38.064Z,13.38
2023-01-26T13:42:18.680Z,9.65
2023-01-26T13:44:53.862Z,8.68
2023-01-26T13:47:28.996Z,8.55
2023-01-26T13:49:57.117Z,8.50
2023-01-26T13:52:27.494Z,6.93
2023-01-26T13:54:58.453Z,9.20
2023-01-26T13:57:29.174Z,7.93
2023-01-26T14:00:00.478Z,8.38
2023-01-26T14:02:31.846Z,6.43
2023-01-26T14:05:01.044Z,7.10
2023-01-26T14:07:32.245Z,6.20
2023-01-26T14:10:03.562Z,6.40
2023-01-26T14:12:35.464Z,6.10
2023-01-26T14:15:07.334Z,7.30
2023-01-26T14:17:37.872Z,6.13
2023-01-26T14:20:19.844Z,9.20
2023-01-26T14:23:02.862Z,9.70
2023-01-26T14:25:32.462Z,9.57
2023-01-26T14:28:00.674Z,11.40
2023-01-26T14:30:31.536Z,5.70
2023-01-26T14:33:07.166Z,8.93
2023-01-26T14:35:35.853Z,8.05
2023-01-26T14:38:15.016Z,7.60
2023-01-26T14:40:48.487Z,7.68
2023-01-26T14:43:17.610Z,8.80
2023-01-26T14:45:50.495Z,8.80
2023-01-26T14:48:23.127Z,7.68
2023-01-26T14:50:51.427Z,8.07
2023-01-26T14:53:22.809Z,7.03
2023-01-26T14:55:53.815Z,8.48
2023-01-26T14:58:25.218Z,9.00
2023-01-26T15:00:53.979Z,8.50
2023-01-26T15:03:28.109Z,7.60
2023-01-26T15:06:20.409Z,8.23
2023-01-26T15:08:58.309Z,9.18
2023-01-26T15:11:48.151Z,10.73
2023-01-26T15:14:49.146Z,7.43
2023-01-26T15:17:31.793Z,8.43
2023-01-26T15:22:28.356Z,7.35
2023-01-26T15:25:17.204Z,8.23
2023-01-26T15:27:51.684Z,8.38
2023-01-26T15:30:24.322Z,9.75
2023-01-26T15:32:52.489Z,9.73
2023-01-26T15:35:24.311Z,9.15
2023-01-26T15:38:02.023Z,9.73
2023-01-26T15:40:30.134Z,7.07
2023-01-26T15:43:13.900Z,9.23
2023-01-26T15:45:43.749Z,9.27
2023-01-26T15:48:12.378Z,9.68
2023-01-26T15:50:40.517Z,10.50
2023-01-26T15:53:13.837Z,9.82
2023-01-26T15:55:42.435Z,10.85
2023-01-26T15:58:10.804Z,11.15
2023-01-26T16:00:40.603Z,12.20
2023-01-26T16:03:15.788Z,10.98
2023-01-26T16:05:47.934Z,9.18
2023-01-26T16:08:16.526Z,7.72
2023-01-26T16:10:45.601Z,8.60
2023-01-26T16:13:17.764Z,10.63
2023-01-26T16:15:49.174Z,7.68
2023-01-26T16:18:17.728Z,7.05
2023-01-26T16:20:48.366Z,8.68
2023-01-26T16:23:19.991Z,11.00
2023-01-26T16:25:48.854Z,9.55
2023-01-26T16:28:17.224Z,10.38
2023-01-26T16:30:48.050Z,9.57
2023-01-26T16:33:18.233Z,8.57
2023-01-26T16:35:46.521Z,10.05
2023-01-26T16:38:14.985Z,9.82
2023-01-26T16:40:45.029Z,9.65
2023-01-26T16:43:20.127Z,10.23
2023-01-26T16:45:50.563Z,11.40
2023-01-26T16:48:18.676Z,10.52
2023-01-26T16:50:47.239Z,9.18
2023-01-26T16:53:20.955Z,9.10
2023-01-26T16:55:50.405Z,8.30
2023-01-26T16:58:18.678Z,7.80
2023-01-26T17:00:47.386Z,8.55
2023-01-26T17:03:17.116Z,10.38
2023-01-26T17:05:45.407Z,9.73
2023-01-26T17:08:13.812Z,8.77
2023-01-26T17:10:59.541Z,9.05
2023-01-26T17:13:29.472Z,8.48
2023-01-26T17:15:58.288Z,8.60
2023-01-26T17:18:27.943Z,8.80
2023-01-26T17:21:02.241Z,8.88
2023-01-26T17:23:31.437Z,8.07
2023-01-26T17:26:00.197Z,10.35
2023-01-26T17:28:28.515Z,9.80
2023-01-26T17:30:58.362Z,9.50
2023-01-26T17:33:29.828Z,10.55
2023-01-26T17:36:01.824Z,9.75
2023-01-26T17:38:30.312Z,12.15
2023-01-26T17:41:00.855Z,9.75
2023-01-26T17:43:29.714Z,10.80
2023-01-26T17:46:08.994Z,9.30
2023-01-26T17:48:39.063Z,8.45
2023-01-26T17:51:08.459Z,9.48
2023-01-26T17:53:39.883Z,10.63
2023-01-26T17:56:09.478Z,12.23
2023-01-26T17:58:37.853Z,11.15
2023-01-26T18:01:06.439Z,10.75
2023-01-26T18:03:35.184Z,12.75
2023-01-26T18:06:05.023Z,11.65
2023-01-26T18:08:33.228Z,11.60
2023-01-26T18:11:02.582Z,10.55
2023-01-26T18:13:31.832Z,12.23
2023-01-26T18:16:00.729Z,9.98
2023-01-26T18:18:30.611Z,8.20
2023-01-26T18:21:02.149Z,12.25
2023-01-26T18:23:32.037Z,17.50
2023-01-26T18:26:05.035Z,15.20
2023-01-26T18:28:33.629Z,12.38
2023-01-26T18:31:09.703Z,10.80
2023-01-26T18:33:38.579Z,10.85
2023-01-26T18:36:11.830Z,10.75
2023-01-26T18:38:42.280Z,10.18
2023-01-26T18:41:14.703Z,11.45
2023-01-26T18:43:45.221Z,11.63
2023-01-26T18:46:13.529Z,11.18
2023-01-26T18:48:41.750Z,11.55
2023-01-26T18:51:10.162Z,11.45
2023-01-26T18:53:40.232Z,12.63
2023-01-26T18:56:16.430Z,10.68
2023-01-26T18:58:44.933Z,10.73
2023-01-26T19:01:15.516Z,12.20
2023-01-26T19:03:47.577Z,9.65
2023-01-26T19:06:18.355Z,10.68
2023-01-26T19:08:46.676Z,9.65
2023-01-26T19:11:19.228Z,10.43
2023-01-26T19:16:17.016Z,10.23
2023-01-26T19:18:45.207Z,11.13
2023-01-26T19:21:13.460Z,11.55
2023-01-26T19:23:42.718Z,11.05
2023-01-26T19:26:12.233Z,11.05
2023-01-26T19:28:42.304Z,11.00
2023-01-26T19:31:11.553Z,11.85
2023-01-26T19:33:40.001Z,11.75
2023-01-26T19:36:09.388Z,12.95
2023-01-26T19:38:39.742Z,11.77
2023-01-26T19:41:07.923Z,11.65
2023-01-26T19:43:36.229Z,10.18
2023-01-26T19:46:08.329Z,11.63
2023-01-26T19:48:36.783Z,10.70
2023-01-26T19:51:07.359Z,11.93
2023-01-26T19:53:36.992Z,11.73
2023-01-26T19:56:09.792Z,11.18
2023-01-26T19:58:38.201Z,10.80
2023-01-26T20:01:09.925Z,10.45
2023-01-26T20:03:38.997Z,11.25
2023-01-26T20:06:14.340Z,11.23
2023-01-26T20:08:42.749Z,10.27
2023-01-26T20:11:11.875Z,10.48
2023-01-26T20:13:41.216Z,10.27
2023-01-26T20:16:32.017Z,12.18
2023-01-26T20:19:00.720Z,11.52
2023-01-26T20:21:29.663Z,10.85
2023-01-26T20:23:58.036Z,12.15
2023-01-26T20:26:27.322Z,11.93
2023-01-26T20:28:58.247Z,10.38
2023-01-26T20:31:27.687Z,11.10
2023-01-26T20:33:58.485Z,11.07
2023-01-26T20:36:29.313Z,11.98
2023-01-26T20:38:57.679Z,11.90
2023-01-26T20:41:28.946Z,12.27
2023-01-26T20:44:00.967Z,11.00
2023-01-26T20:48:59.753Z,11.38
2023-01-26T20:51:30.683Z,11.07
2023-01-26T20:53:59.330Z,11.10
2023-01-26T20:56:30.900Z,11.88
2023-01-26T20:58:59.268Z,10.70
2023-01-26T21:01:27.581Z,11.60
2023-01-26T21:03:56.035Z,10.93
2023-01-26T21:06:26.299Z,12.40
2023-01-26T21:08:56.010Z,9.88
2023-01-26T21:11:26.381Z,11.95
2023-01-26T21:13:56.516Z,11.93
2023-01-26T21:16:25.477Z,10.80
2023-01-26T21:18:54.003Z,11.05
2023-01-26T21:21:22.693Z,10.70
2023-01-26T21:23:52.908Z,11.63
2023-01-26T21:26:22.935Z,10.90
2023-01-26T21:28:52.117Z,10.07
2023-01-26T21:31:21.394Z,11.27
2023-01-26T21:33:50.826Z,10.93
2023-01-26T21:36:22.848Z,10.40
2023-01-26T21:38:54.398Z,10.55
2023-01-26T21:41:41.539Z,11.63
2023-01-26T21:44:11.675Z,12.00
2023-01-26T21:46:43.218Z,10.27
2023-01-26T21:49:11.681Z,11.60
2023-01-26T21:51:56.962Z,11.05
2023-01-26T21:54:27.597Z,11.20
2023-01-26T21:56:55.735Z,12.18
2023-01-26T21:59:23.124Z,12.68
2023-01-26T22:01:53.141Z,12.30
2023-01-26T22:04:25.095Z,12.07
2023-01-26T22:06:53.474Z,12.35
2023-01-26T22:09:25.777Z,15.15
2023-01-26T22:11:55.504Z,12.38
2023-01-26T22:14:25.916Z,12.52
2023-01-26T22:16:54.340Z,11.20
2023-01-26T22:19:22.691Z,12.32
2023-01-26T22:21:51.185Z,10.98
2023-01-26T22:24:19.423Z,12.77
2023-01-26T22:26:48.238Z,11.35
2023-01-26T22:29:18.040Z,12.88
2023-01-26T22:31:46.403Z,11.63
2023-01-26T22:34:14.599Z,12.57
2023-01-26T22:36:42.755Z,12.65
2023-01-26T22:39:12.357Z,13.13
2023-01-26T22:41:40.892Z,12.85
2023-01-26T22:44:09.382Z,12.70
2023-01-26T22:46:39.185Z,12.82
2023-01-26T22:49:07.310Z,12.20
2023-01-26T22:51:37.516Z,11.70
2023-01-26T22:54:06.546Z,14.13
2023-01-26T22:56:35.037Z,13.73
2023-01-26T22:59:03.317Z,12.43
2023-01-26T23:01:33.371Z,14.00
2023-01-26T23:04:03.247Z,14.07
2023-01-26T23:06:31.789Z,13.30
2023-01-26T23:09:01.215Z,13.32
2023-01-26T23:11:30.528Z,13.02
2023-01-26T23:14:00.148Z,13.15
2023-01-26T23:16:28.921Z,12.57
2023-01-26T23:18:59.176Z,11.93
2023-01-26T23:21:29.830Z,12.50
2023-01-26T23:23:58.317Z,12.27
2023-01-26T23:26:26.517Z,14.10
2023-01-26T23:28:54.566Z,12.95
2023-01-26T23:31:23.196Z,13.02
2023-01-26T23:33:51.317Z,13.90
2023-01-26T23:36:20.691Z,14.55
2023-01-26T23:38:50.449Z,12.77
2023-01-26T23:41:18.741Z,12.85
2023-01-26T23:43:47.255Z,13.30
2023-01-26T23:46:15.313Z,14.60
2023-01-26T23:48:43.356Z,12.40
2023-01-26T23:51:13.338Z,14.50
2023-01-26T23:53:41.591Z,13.20
2023-01-26T23:56:14.714Z,12.52
2023-01-26T23:58:42.785Z,12.65
